Gjoa Haven Airport
CYHK : now visible

Airfield :











YOU CAN JOIN US ON...

 
LOGIN :

Register | Disclaimer

   EN    FR    IT 

 









Legend :    VFR   Marginal VFR   IFR   Intensive IFR   Very Intensive IFR
Visi :
Ceiling :
>= 8 km
>= 3000ft
5 to 8 km
1000 to 3000 ft
1500m to 5 km
500 to 1000 ft
800 to 1500m
200 to 500 ft
< 800m
< 200 ft
Symbols :   Thunderstorms  Fog  Heavy snow  Heavy precipitations  Wind > 20 kt







- Airport Elevation : 152 ft
- IATA code : YHK


CYHK - Gjoa Haven

CURRENT METAR :
  • 220200Z AUTO 09006KT 9SM OVC016 M00/M02 A2971 RMK SLP067

EXPIRED METARs :
  • 220100Z AUTO 06012KT 9SM OVC016 M00/M03 A2972 RMK SLP069
  • 220000Z AUTO 06010KT 9SM OVC016 00/M02 A2973 RMK SLP072

TAF TAF CYHK
Valid from the 22 at 00:00 until the 22 at 12:00 UTC


212338Z 2200/2212 07010KT P6SM OVC015
TEMPO 2200/2212 BKN025 RMK NXT FCST BY 220600Z
No reported NOTAMs for that airfield.



MET'MAP, your aeronautical weather chart ! - Copyright ORBIFLY December 2007 - Disclaimer

ORBIFLY MET'MAP TEAM :

Programming & Development : Alexandra Zaïnal
Concept & Development : Baudouin d'Aumeries
Co-Development & Prog : Marc-Olivier Méhu
Technical & hardware support : Manuel Goepfert

Contact : metmap@orbifly.com




SOURCES & CREDITS :

   NOAA       Earth
Advisory